map of TRS home
TRS - Airport
Location
City:  Trieste, Friuli-Venezia Giulia, Italy
Name:Ronchi dei Legionari
ICAO:LIPQ
IATA:TRS

Details
Type:Airport (Aerodrome, Airfield)
Use:Public/Civil, International (customs port of entry)
Latitude:4549'39"N (45.827500)
Longitude:1328'20"E (13.472222)
Datum:WGS 1984
Elevation:37 ft (11 m)
Variation:3.56E (WMM2015 magnetic declination)
0.11 annual change
Runways:1
Longest:9843 × 148 ft (3000 × 45 m), paved

Time
Time Zone:UTC+1 (DST+2)
Local Time:

Weather
METAR:LIPQ 180420Z AUTO 16004KT 9999 -RA FEW012/// OVC031/// 09/08 Q1008
TAF:LIPQ 172300Z 1800/1824 VRB05KT 8000 BKN030
TEMPO 1800/1810 4000 RA
BECMG 1808/1810 08010KT

Related Locations
Nearby:
Farthest:CHT: 11932 mi / 19203 km
Waitangi [Tuuta], CIT, NZ

Find:

   beyond  
but within

Other Information
Maps:
NOTAMs:
Links:
Sources:

  
  • flag of Italy
  • flag of Friuli-Venezia Giulia
  

Sectional Chart

Flight Planning
at skyvector.com

Satellite Image

Google Maps Satellite view

 

Copyright © 2004-2019 Karl L. Swartz. All rights reserved.
The Great Circle Mapper name and logo are trademarks of the Great Circle Mapper.
All other trademarks mentioned herein belong to their respective owners.
Please see credits for attibutions and further copyright information.

  Follow gcmap on Facebook Follow gcmap on Twitter Follow gcmap on Google+ GCmap on LinkedIn

hCard Microformat

Geo Microformat